Terminal Aerodrome Forecast
Issued by NWS Shreveport, LA

Home | Current Version | Previous Version | Text Only | Print | Product List | Glossary On
Versions: 1 2 3 4 5 6 7 8 9 10 11 12 13 14 15 16 17 18
497
FTUS44 KSHV 230523
TAFTYR
TAF
KTYR 230523Z 2306/2406 13006KT P6SM SKC
     FM230900 15005KT P6SM BKN020
      TEMPO 2310/2313 OVC010
     FM231500 17012KT P6SM SKC
      TEMPO 2319/2323 17015G25KT=

USA.gov is the U.S. government's official web portal to all federal, state and local government web resources and services.